<?xml version="1.0" encoding="UTF-8" standalone="no" ?>
<gpx xmlns="http://www.topografix.com/GPX/1/1" xmlns:xsi="http://www.w3.org/2001/XMLSchema-instance" xsi:schemaLocation="http://www.topografix.com/GPX/1/1 http://www.topografix.com/GPX/1/1/gpx.xsd" version="1.1" creator="VisuGPX - https://www.visugpx.com">
  <metadata>
    <name>La Faucille G1</name>
  </metadata>
  <trk>
    <name><![CDATA[G1-Faucille-CODAP-15967902]]></name>
    <extensions>
      <line xmlns="http://www.topografix.com/GPX/gpx_style/0/2">
        <color>0000FF</color>
        <width>4</width>
      </line>
    </extensions>
    <trkseg>
      <trkpt lat="46.3672" lon="6.01698">
        <ele>1327</ele>
        <time>2023-01-05T10:12:19Z</time>
      </trkpt>
      <trkpt lat="46.36722" lon="6.01684">
        <ele>1327</ele>
        <time>2023-01-05T10:12:27Z</time>
      </trkpt>
      <trkpt lat="46.36722" lon="6.01665">
        <ele>1326</ele>
        <time>2023-01-05T10:12:37Z</time>
      </trkpt>
      <trkpt lat="46.36724" lon="6.0165">
        <ele>1325</ele>
        <time>2023-01-05T10:12:46Z</time>
      </trkpt>
      <trkpt lat="46.36733" lon="6.01619">
        <ele>1322</ele>
        <time>2023-01-05T10:13:04Z</time>
      </trkpt>
      <trkpt lat="46.36744" lon="6.01586">
        <ele>1319</ele>
        <time>2023-01-05T10:13:25Z</time>
      </trkpt>
      <trkpt lat="46.36757" lon="6.0155">
        <ele>1316</ele>
        <time>2023-01-05T10:13:47Z</time>
      </trkpt>
      <trkpt lat="46.36749" lon="6.01538">
        <ele>1317</ele>
        <time>2023-01-05T10:13:56Z</time>
      </trkpt>
      <trkpt lat="46.3674" lon="6.01515">
        <ele>1317</ele>
        <time>2023-01-05T10:14:11Z</time>
      </trkpt>
      <trkpt lat="46.36733" lon="6.01498">
        <ele>1317</ele>
        <time>2023-01-05T10:14:22Z</time>
      </trkpt>
      <trkpt lat="46.36724" lon="6.01479">
        <ele>1318</ele>
        <time>2023-01-05T10:14:35Z</time>
      </trkpt>
      <trkpt lat="46.36715" lon="6.0146">
        <ele>1319</ele>
        <time>2023-01-05T10:14:47Z</time>
      </trkpt>
      <trkpt lat="46.36708" lon="6.01437">
        <ele>1321</ele>
        <time>2023-01-05T10:15:01Z</time>
      </trkpt>
      <trkpt lat="46.36697" lon="6.01445">
        <ele>1323</ele>
        <time>2023-01-05T10:15:11Z</time>
      </trkpt>
      <trkpt lat="46.36668" lon="6.01455">
        <ele>1326</ele>
        <time>2023-01-05T10:15:35Z</time>
      </trkpt>
      <trkpt lat="46.36644" lon="6.0146">
        <ele>1329</ele>
        <time>2023-01-05T10:15:54Z</time>
      </trkpt>
      <trkpt lat="46.36633" lon="6.01463">
        <ele>1331</ele>
        <time>2023-01-05T10:16:03Z</time>
      </trkpt>
      <trkpt lat="46.36606" lon="6.01464">
        <ele>1335</ele>
        <time>2023-01-05T10:16:25Z</time>
      </trkpt>
      <trkpt lat="46.36597" lon="6.01457">
        <ele>1337</ele>
        <time>2023-01-05T10:16:33Z</time>
      </trkpt>
      <trkpt lat="46.36581" lon="6.01437">
        <ele>1340</ele>
        <time>2023-01-05T10:16:50Z</time>
      </trkpt>
      <trkpt lat="46.36575" lon="6.01431">
        <ele>1341</ele>
        <time>2023-01-05T10:16:56Z</time>
      </trkpt>
      <trkpt lat="46.3656" lon="6.0143">
        <ele>1343</ele>
        <time>2023-01-05T10:17:08Z</time>
      </trkpt>
      <trkpt lat="46.36549" lon="6.01435">
        <ele>1344</ele>
        <time>2023-01-05T10:17:17Z</time>
      </trkpt>
      <trkpt lat="46.36537" lon="6.01427">
        <ele>1346</ele>
        <time>2023-01-05T10:17:28Z</time>
      </trkpt>
      <trkpt lat="46.36531" lon="6.01425">
        <ele>1347</ele>
        <time>2023-01-05T10:17:33Z</time>
      </trkpt>
      <trkpt lat="46.36518" lon="6.01419">
        <ele>1349</ele>
        <time>2023-01-05T10:17:44Z</time>
      </trkpt>
      <trkpt lat="46.36504" lon="6.01411">
        <ele>1351</ele>
        <time>2023-01-05T10:17:56Z</time>
      </trkpt>
      <trkpt lat="46.36486" lon="6.01403">
        <ele>1355</ele>
        <time>2023-01-05T10:18:11Z</time>
      </trkpt>
      <trkpt lat="46.36469" lon="6.01397">
        <ele>1360</ele>
        <time>2023-01-05T10:18:25Z</time>
      </trkpt>
      <trkpt lat="46.36451" lon="6.01387">
        <ele>1364</ele>
        <time>2023-01-05T10:18:40Z</time>
      </trkpt>
      <trkpt lat="46.36423" lon="6.01373">
        <ele>1370</ele>
        <time>2023-01-05T10:19:04Z</time>
      </trkpt>
      <trkpt lat="46.36412" lon="6.01364">
        <ele>1372</ele>
        <time>2023-01-05T10:19:14Z</time>
      </trkpt>
      <trkpt lat="46.36407" lon="6.01349">
        <ele>1372</ele>
        <time>2023-01-05T10:19:23Z</time>
      </trkpt>
      <trkpt lat="46.36396" lon="6.01342">
        <ele>1375</ele>
        <time>2023-01-05T10:19:33Z</time>
      </trkpt>
      <trkpt lat="46.36378" lon="6.01346">
        <ele>1382</ele>
        <time>2023-01-05T10:19:47Z</time>
      </trkpt>
      <trkpt lat="46.36364" lon="6.01349">
        <ele>1387</ele>
        <time>2023-01-05T10:19:59Z</time>
      </trkpt>
      <trkpt lat="46.36345" lon="6.01353">
        <ele>1394</ele>
        <time>2023-01-05T10:20:14Z</time>
      </trkpt>
      <trkpt lat="46.36345" lon="6.01364">
        <ele>1395</ele>
        <time>2023-01-05T10:20:20Z</time>
      </trkpt>
      <trkpt lat="46.36333" lon="6.01389">
        <ele>1402</ele>
        <time>2023-01-05T10:20:37Z</time>
      </trkpt>
      <trkpt lat="46.36323" lon="6.01408">
        <ele>1407</ele>
        <time>2023-01-05T10:20:50Z</time>
      </trkpt>
      <trkpt lat="46.36311" lon="6.01425">
        <ele>1411</ele>
        <time>2023-01-05T10:21:04Z</time>
      </trkpt>
      <trkpt lat="46.36304" lon="6.01446">
        <ele>1414</ele>
        <time>2023-01-05T10:21:17Z</time>
      </trkpt>
      <trkpt lat="46.36304" lon="6.01469">
        <ele>1415</ele>
        <time>2023-01-05T10:21:29Z</time>
      </trkpt>
      <trkpt lat="46.36308" lon="6.01494">
        <ele>1415</ele>
        <time>2023-01-05T10:21:43Z</time>
      </trkpt>
      <trkpt lat="46.36309" lon="6.01513">
        <ele>1415</ele>
        <time>2023-01-05T10:21:54Z</time>
      </trkpt>
      <trkpt lat="46.36305" lon="6.0154">
        <ele>1417</ele>
        <time>2023-01-05T10:22:09Z</time>
      </trkpt>
      <trkpt lat="46.36301" lon="6.01558">
        <ele>1418</ele>
        <time>2023-01-05T10:22:20Z</time>
      </trkpt>
      <trkpt lat="46.36297" lon="6.01571">
        <ele>1419</ele>
        <time>2023-01-05T10:22:28Z</time>
      </trkpt>
      <trkpt lat="46.36288" lon="6.01589">
        <ele>1422</ele>
        <time>2023-01-05T10:22:40Z</time>
      </trkpt>
      <trkpt lat="46.3628" lon="6.01605">
        <ele>1424</ele>
        <time>2023-01-05T10:22:51Z</time>
      </trkpt>
      <trkpt lat="46.36276" lon="6.01618">
        <ele>1425</ele>
        <time>2023-01-05T10:22:59Z</time>
      </trkpt>
      <trkpt lat="46.36272" lon="6.01628">
        <ele>1427</ele>
        <time>2023-01-05T10:23:05Z</time>
      </trkpt>
      <trkpt lat="46.3626" lon="6.01624">
        <ele>1429</ele>
        <time>2023-01-05T10:23:15Z</time>
      </trkpt>
      <trkpt lat="46.36252" lon="6.01621">
        <ele>1430</ele>
        <time>2023-01-05T10:23:21Z</time>
      </trkpt>
      <trkpt lat="46.36249" lon="6.01612">
        <ele>1431</ele>
        <time>2023-01-05T10:23:27Z</time>
      </trkpt>
      <trkpt lat="46.36247" lon="6.01598">
        <ele>1431</ele>
        <time>2023-01-05T10:23:35Z</time>
      </trkpt>
      <trkpt lat="46.3624" lon="6.01592">
        <ele>1433</ele>
        <time>2023-01-05T10:23:41Z</time>
      </trkpt>
      <trkpt lat="46.3623" lon="6.01593">
        <ele>1437</ele>
        <time>2023-01-05T10:23:49Z</time>
      </trkpt>
      <trkpt lat="46.36221" lon="6.01602">
        <ele>1440</ele>
        <time>2023-01-05T10:23:58Z</time>
      </trkpt>
      <trkpt lat="46.3621" lon="6.016">
        <ele>1443</ele>
        <time>2023-01-05T10:24:07Z</time>
      </trkpt>
      <trkpt lat="46.36198" lon="6.01598">
        <ele>1447</ele>
        <time>2023-01-05T10:24:17Z</time>
      </trkpt>
      <trkpt lat="46.36189" lon="6.01597">
        <ele>1450</ele>
        <time>2023-01-05T10:24:24Z</time>
      </trkpt>
      <trkpt lat="46.3618" lon="6.01607">
        <ele>1453</ele>
        <time>2023-01-05T10:24:33Z</time>
      </trkpt>
      <trkpt lat="46.36173" lon="6.01614">
        <ele>1455</ele>
        <time>2023-01-05T10:24:40Z</time>
      </trkpt>
      <trkpt lat="46.36167" lon="6.01611">
        <ele>1457</ele>
        <time>2023-01-05T10:24:45Z</time>
      </trkpt>
      <trkpt lat="46.36157" lon="6.01603">
        <ele>1460</ele>
        <time>2023-01-05T10:24:54Z</time>
      </trkpt>
      <trkpt lat="46.36147" lon="6.01594">
        <ele>1463</ele>
        <time>2023-01-05T10:25:03Z</time>
      </trkpt>
      <trkpt lat="46.36137" lon="6.01587">
        <ele>1466</ele>
        <time>2023-01-05T10:25:12Z</time>
      </trkpt>
      <trkpt lat="46.36121" lon="6.01583">
        <ele>1470</ele>
        <time>2023-01-05T10:25:25Z</time>
      </trkpt>
      <trkpt lat="46.36104" lon="6.01588">
        <ele>1474</ele>
        <time>2023-01-05T10:25:39Z</time>
      </trkpt>
      <trkpt lat="46.36087" lon="6.01594">
        <ele>1479</ele>
        <time>2023-01-05T10:25:53Z</time>
      </trkpt>
      <trkpt lat="46.3607" lon="6.01596">
        <ele>1483</ele>
        <time>2023-01-05T10:26:07Z</time>
      </trkpt>
      <trkpt lat="46.36046" lon="6.01602">
        <ele>1488</ele>
        <time>2023-01-05T10:26:26Z</time>
      </trkpt>
      <trkpt lat="46.36034" lon="6.01601">
        <ele>1491</ele>
        <time>2023-01-05T10:26:36Z</time>
      </trkpt>
      <trkpt lat="46.3602" lon="6.01604">
        <ele>1495</ele>
        <time>2023-01-05T10:26:47Z</time>
      </trkpt>
      <trkpt lat="46.36004" lon="6.01602">
        <ele>1498</ele>
        <time>2023-01-05T10:27:00Z</time>
      </trkpt>
      <trkpt lat="46.35985" lon="6.01605">
        <ele>1501</ele>
        <time>2023-01-05T10:27:16Z</time>
      </trkpt>
      <trkpt lat="46.35966" lon="6.01612">
        <ele>1504</ele>
        <time>2023-01-05T10:27:31Z</time>
      </trkpt>
      <trkpt lat="46.35954" lon="6.01614">
        <ele>1506</ele>
        <time>2023-01-05T10:27:41Z</time>
      </trkpt>
      <trkpt lat="46.35943" lon="6.016">
        <ele>1508</ele>
        <time>2023-01-05T10:27:53Z</time>
      </trkpt>
      <trkpt lat="46.35929" lon="6.01594">
        <ele>1510</ele>
        <time>2023-01-05T10:28:04Z</time>
      </trkpt>
      <trkpt lat="46.35909" lon="6.01598">
        <ele>1512</ele>
        <time>2023-01-05T10:28:20Z</time>
      </trkpt>
      <trkpt lat="46.3589" lon="6.01621">
        <ele>1514</ele>
        <time>2023-01-05T10:28:40Z</time>
      </trkpt>
      <trkpt lat="46.35879" lon="6.01654">
        <ele>1518</ele>
        <time>2023-01-05T10:29:01Z</time>
      </trkpt>
      <trkpt lat="46.35869" lon="6.01659">
        <ele>1520</ele>
        <time>2023-01-05T10:29:09Z</time>
      </trkpt>
      <trkpt lat="46.35848" lon="6.01662">
        <ele>1522</ele>
        <time>2023-01-05T10:29:26Z</time>
      </trkpt>
      <trkpt lat="46.35837" lon="6.01662">
        <ele>1524</ele>
        <time>2023-01-05T10:29:35Z</time>
      </trkpt>
      <trkpt lat="46.35819" lon="6.01654">
        <ele>1525</ele>
        <time>2023-01-05T10:29:50Z</time>
      </trkpt>
      <trkpt lat="46.35807" lon="6.01656">
        <ele>1527</ele>
        <time>2023-01-05T10:29:59Z</time>
      </trkpt>
      <trkpt lat="46.35794" lon="6.01669">
        <ele>1530</ele>
        <time>2023-01-05T10:30:12Z</time>
      </trkpt>
      <trkpt lat="46.35776" lon="6.01652">
        <ele>1530</ele>
        <time>2023-01-05T10:30:29Z</time>
      </trkpt>
      <trkpt lat="46.35762" lon="6.0165">
        <ele>1532</ele>
        <time>2023-01-05T10:30:41Z</time>
      </trkpt>
      <trkpt lat="46.3575" lon="6.01655">
        <ele>1534</ele>
        <time>2023-01-05T10:30:51Z</time>
      </trkpt>
      <trkpt lat="46.35742" lon="6.01636">
        <ele>1530</ele>
        <time>2023-01-05T10:31:03Z</time>
      </trkpt>
      <trkpt lat="46.35736" lon="6.01624">
        <ele>1528</ele>
        <time>2023-01-05T10:31:11Z</time>
      </trkpt>
      <trkpt lat="46.35728" lon="6.01619">
        <ele>1527</ele>
        <time>2023-01-05T10:31:18Z</time>
      </trkpt>
      <trkpt lat="46.35717" lon="6.01623">
        <ele>1526</ele>
        <time>2023-01-05T10:31:27Z</time>
      </trkpt>
      <trkpt lat="46.35704" lon="6.01627">
        <ele>1525</ele>
        <time>2023-01-05T10:31:38Z</time>
      </trkpt>
      <trkpt lat="46.35692" lon="6.01638">
        <ele>1524</ele>
        <time>2023-01-05T10:31:49Z</time>
      </trkpt>
      <trkpt lat="46.35678" lon="6.01648">
        <ele>1523</ele>
        <time>2023-01-05T10:32:02Z</time>
      </trkpt>
      <trkpt lat="46.35659" lon="6.01652">
        <ele>1518</ele>
        <time>2023-01-05T10:32:17Z</time>
      </trkpt>
      <trkpt lat="46.35643" lon="6.01653">
        <ele>1512</ele>
        <time>2023-01-05T10:32:30Z</time>
      </trkpt>
      <trkpt lat="46.35633" lon="6.01647">
        <ele>1508</ele>
        <time>2023-01-05T10:32:38Z</time>
      </trkpt>
      <trkpt lat="46.3562" lon="6.01637">
        <ele>1505</ele>
        <time>2023-01-05T10:32:50Z</time>
      </trkpt>
      <trkpt lat="46.35612" lon="6.01627">
        <ele>1504</ele>
        <time>2023-01-05T10:32:59Z</time>
      </trkpt>
      <trkpt lat="46.35607" lon="6.01606">
        <ele>1506</ele>
        <time>2023-01-05T10:33:11Z</time>
      </trkpt>
      <trkpt lat="46.35601" lon="6.01583">
        <ele>1510</ele>
        <time>2023-01-05T10:33:25Z</time>
      </trkpt>
      <trkpt lat="46.35596" lon="6.01561">
        <ele>1513</ele>
        <time>2023-01-05T10:33:37Z</time>
      </trkpt>
      <trkpt lat="46.35588" lon="6.01556">
        <ele>1513</ele>
        <time>2023-01-05T10:33:44Z</time>
      </trkpt>
      <trkpt lat="46.35578" lon="6.01548">
        <ele>1513</ele>
        <time>2023-01-05T10:33:54Z</time>
      </trkpt>
      <trkpt lat="46.35569" lon="6.01541">
        <ele>1512</ele>
        <time>2023-01-05T10:34:02Z</time>
      </trkpt>
      <trkpt lat="46.35561" lon="6.01525">
        <ele>1514</ele>
        <time>2023-01-05T10:34:13Z</time>
      </trkpt>
      <trkpt lat="46.35555" lon="6.01506">
        <ele>1518</ele>
        <time>2023-01-05T10:34:24Z</time>
      </trkpt>
      <trkpt lat="46.35544" lon="6.01492">
        <ele>1519</ele>
        <time>2023-01-05T10:34:36Z</time>
      </trkpt>
      <trkpt lat="46.35531" lon="6.01477">
        <ele>1518</ele>
        <time>2023-01-05T10:34:49Z</time>
      </trkpt>
      <trkpt lat="46.35524" lon="6.01457">
        <ele>1519</ele>
        <time>2023-01-05T10:35:02Z</time>
      </trkpt>
      <trkpt lat="46.35517" lon="6.01433">
        <ele>1520</ele>
        <time>2023-01-05T10:35:16Z</time>
      </trkpt>
      <trkpt lat="46.35512" lon="6.01408">
        <ele>1521</ele>
        <time>2023-01-05T10:35:30Z</time>
      </trkpt>
      <trkpt lat="46.35511" lon="6.01381">
        <ele>1521</ele>
        <time>2023-01-05T10:35:45Z</time>
      </trkpt>
      <trkpt lat="46.3551" lon="6.01353">
        <ele>1520</ele>
        <time>2023-01-05T10:36:01Z</time>
      </trkpt>
      <trkpt lat="46.35505" lon="6.01331">
        <ele>1518</ele>
        <time>2023-01-05T10:36:14Z</time>
      </trkpt>
      <trkpt lat="46.35496" lon="6.01324">
        <ele>1516</ele>
        <time>2023-01-05T10:36:22Z</time>
      </trkpt>
      <trkpt lat="46.35489" lon="6.0132">
        <ele>1514</ele>
        <time>2023-01-05T10:36:28Z</time>
      </trkpt>
      <trkpt lat="46.35491" lon="6.01301">
        <ele>1512</ele>
        <time>2023-01-05T10:36:38Z</time>
      </trkpt>
      <trkpt lat="46.35496" lon="6.01279">
        <ele>1511</ele>
        <time>2023-01-05T10:36:51Z</time>
      </trkpt>
      <trkpt lat="46.35503" lon="6.01256">
        <ele>1509</ele>
        <time>2023-01-05T10:37:05Z</time>
      </trkpt>
      <trkpt lat="46.35502" lon="6.01243">
        <ele>1508</ele>
        <time>2023-01-05T10:37:12Z</time>
      </trkpt>
      <trkpt lat="46.35509" lon="6.01228">
        <ele>1509</ele>
        <time>2023-01-05T10:37:22Z</time>
      </trkpt>
      <trkpt lat="46.35511" lon="6.01214">
        <ele>1509</ele>
        <time>2023-01-05T10:37:30Z</time>
      </trkpt>
      <trkpt lat="46.35514" lon="6.01204">
        <ele>1509</ele>
        <time>2023-01-05T10:37:36Z</time>
      </trkpt>
      <trkpt lat="46.35512" lon="6.01192">
        <ele>1508</ele>
        <time>2023-01-05T10:37:43Z</time>
      </trkpt>
      <trkpt lat="46.35515" lon="6.0118">
        <ele>1508</ele>
        <time>2023-01-05T10:37:50Z</time>
      </trkpt>
      <trkpt lat="46.35511" lon="6.01171">
        <ele>1508</ele>
        <time>2023-01-05T10:37:56Z</time>
      </trkpt>
      <trkpt lat="46.35504" lon="6.01163">
        <ele>1508</ele>
        <time>2023-01-05T10:38:03Z</time>
      </trkpt>
      <trkpt lat="46.3549" lon="6.01157">
        <ele>1508</ele>
        <time>2023-01-05T10:38:15Z</time>
      </trkpt>
      <trkpt lat="46.35485" lon="6.0115">
        <ele>1508</ele>
        <time>2023-01-05T10:38:20Z</time>
      </trkpt>
      <trkpt lat="46.35474" lon="6.01143">
        <ele>1508</ele>
        <time>2023-01-05T10:38:30Z</time>
      </trkpt>
      <trkpt lat="46.35459" lon="6.01139">
        <ele>1508</ele>
        <time>2023-01-05T10:38:42Z</time>
      </trkpt>
      <trkpt lat="46.35441" lon="6.01135">
        <ele>1508</ele>
        <time>2023-01-05T10:38:57Z</time>
      </trkpt>
      <trkpt lat="46.35426" lon="6.01135">
        <ele>1507</ele>
        <time>2023-01-05T10:39:09Z</time>
      </trkpt>
      <trkpt lat="46.35416" lon="6.01133">
        <ele>1507</ele>
        <time>2023-01-05T10:39:17Z</time>
      </trkpt>
      <trkpt lat="46.35404" lon="6.0112">
        <ele>1509</ele>
        <time>2023-01-05T10:39:29Z</time>
      </trkpt>
      <trkpt lat="46.35398" lon="6.01113">
        <ele>1510</ele>
        <time>2023-01-05T10:39:35Z</time>
      </trkpt>
      <trkpt lat="46.35389" lon="6.01111">
        <ele>1510</ele>
        <time>2023-01-05T10:39:42Z</time>
      </trkpt>
      <trkpt lat="46.35379" lon="6.01103">
        <ele>1512</ele>
        <time>2023-01-05T10:39:52Z</time>
      </trkpt>
      <trkpt lat="46.35366" lon="6.01101">
        <ele>1513</ele>
        <time>2023-01-05T10:40:02Z</time>
      </trkpt>
      <trkpt lat="46.35354" lon="6.01095">
        <ele>1515</ele>
        <time>2023-01-05T10:40:12Z</time>
      </trkpt>
      <trkpt lat="46.35339" lon="6.01093">
        <ele>1516</ele>
        <time>2023-01-05T10:40:24Z</time>
      </trkpt>
      <trkpt lat="46.35327" lon="6.01094">
        <ele>1516</ele>
        <time>2023-01-05T10:40:34Z</time>
      </trkpt>
      <trkpt lat="46.35317" lon="6.01088">
        <ele>1517</ele>
        <time>2023-01-05T10:40:43Z</time>
      </trkpt>
      <trkpt lat="46.35309" lon="6.01087">
        <ele>1517</ele>
        <time>2023-01-05T10:40:49Z</time>
      </trkpt>
      <trkpt lat="46.353" lon="6.0108">
        <ele>1519</ele>
        <time>2023-01-05T10:40:57Z</time>
      </trkpt>
      <trkpt lat="46.35292" lon="6.01072">
        <ele>1520</ele>
        <time>2023-01-05T10:41:05Z</time>
      </trkpt>
      <trkpt lat="46.35272" lon="6.01067">
        <ele>1520</ele>
        <time>2023-01-05T10:41:21Z</time>
      </trkpt>
      <trkpt lat="46.35258" lon="6.01055">
        <ele>1522</ele>
        <time>2023-01-05T10:41:34Z</time>
      </trkpt>
      <trkpt lat="46.35248" lon="6.01058">
        <ele>1521</ele>
        <time>2023-01-05T10:41:42Z</time>
      </trkpt>
      <trkpt lat="46.35245" lon="6.0105">
        <ele>1522</ele>
        <time>2023-01-05T10:41:47Z</time>
      </trkpt>
      <trkpt lat="46.35249" lon="6.01038">
        <ele>1525</ele>
        <time>2023-01-05T10:41:55Z</time>
      </trkpt>
      <trkpt lat="46.35243" lon="6.01026">
        <ele>1526</ele>
        <time>2023-01-05T10:42:03Z</time>
      </trkpt>
      <trkpt lat="46.35238" lon="6.01015">
        <ele>1528</ele>
        <time>2023-01-05T10:42:10Z</time>
      </trkpt>
      <trkpt lat="46.35232" lon="6.01004">
        <ele>1529</ele>
        <time>2023-01-05T10:42:18Z</time>
      </trkpt>
      <trkpt lat="46.35226" lon="6.00992">
        <ele>1529</ele>
        <time>2023-01-05T10:42:26Z</time>
      </trkpt>
      <trkpt lat="46.35212" lon="6.00979">
        <ele>1525</ele>
        <time>2023-01-05T10:42:40Z</time>
      </trkpt>
      <trkpt lat="46.35201" lon="6.00968">
        <ele>1523</ele>
        <time>2023-01-05T10:42:50Z</time>
      </trkpt>
      <trkpt lat="46.35183" lon="6.00947">
        <ele>1518</ele>
        <time>2023-01-05T10:43:09Z</time>
      </trkpt>
      <trkpt lat="46.35164" lon="6.00928">
        <ele>1513</ele>
        <time>2023-01-05T10:43:27Z</time>
      </trkpt>
      <trkpt lat="46.35153" lon="6.00911">
        <ele>1508</ele>
        <time>2023-01-05T10:43:40Z</time>
      </trkpt>
      <trkpt lat="46.35145" lon="6.00893">
        <ele>1503</ele>
        <time>2023-01-05T10:43:52Z</time>
      </trkpt>
      <trkpt lat="46.35144" lon="6.00867">
        <ele>1498</ele>
        <time>2023-01-05T10:44:06Z</time>
      </trkpt>
      <trkpt lat="46.35142" lon="6.00839">
        <ele>1492</ele>
        <time>2023-01-05T10:44:22Z</time>
      </trkpt>
      <trkpt lat="46.35139" lon="6.00813">
        <ele>1488</ele>
        <time>2023-01-05T10:44:36Z</time>
      </trkpt>
      <trkpt lat="46.35135" lon="6.00801">
        <ele>1485</ele>
        <time>2023-01-05T10:44:44Z</time>
      </trkpt>
      <trkpt lat="46.3513" lon="6.00793">
        <ele>1483</ele>
        <time>2023-01-05T10:44:50Z</time>
      </trkpt>
      <trkpt lat="46.35123" lon="6.00794">
        <ele>1482</ele>
        <time>2023-01-05T10:44:55Z</time>
      </trkpt>
      <trkpt lat="46.35118" lon="6.00784">
        <ele>1480</ele>
        <time>2023-01-05T10:45:02Z</time>
      </trkpt>
      <trkpt lat="46.35113" lon="6.00776">
        <ele>1478</ele>
        <time>2023-01-05T10:45:08Z</time>
      </trkpt>
      <trkpt lat="46.35096" lon="6.00753">
        <ele>1473</ele>
        <time>2023-01-05T10:45:27Z</time>
      </trkpt>
      <trkpt lat="46.35087" lon="6.00747">
        <ele>1472</ele>
        <time>2023-01-05T10:45:35Z</time>
      </trkpt>
      <trkpt lat="46.3508" lon="6.00739">
        <ele>1472</ele>
        <time>2023-01-05T10:45:42Z</time>
      </trkpt>
      <trkpt lat="46.35074" lon="6.00733">
        <ele>1474</ele>
        <time>2023-01-05T10:45:48Z</time>
      </trkpt>
      <trkpt lat="46.35063" lon="6.0071">
        <ele>1478</ele>
        <time>2023-01-05T10:46:03Z</time>
      </trkpt>
      <trkpt lat="46.35053" lon="6.00692">
        <ele>1482</ele>
        <time>2023-01-05T10:46:16Z</time>
      </trkpt>
      <trkpt lat="46.35039" lon="6.00678">
        <ele>1487</ele>
        <time>2023-01-05T10:46:30Z</time>
      </trkpt>
      <trkpt lat="46.35023" lon="6.00671">
        <ele>1492</ele>
        <time>2023-01-05T10:46:43Z</time>
      </trkpt>
      <trkpt lat="46.35007" lon="6.0065">
        <ele>1500</ele>
        <time>2023-01-05T10:47:00Z</time>
      </trkpt>
      <trkpt lat="46.3499" lon="6.00642">
        <ele>1509</ele>
        <time>2023-01-05T10:47:15Z</time>
      </trkpt>
      <trkpt lat="46.34974" lon="6.00641">
        <ele>1518</ele>
        <time>2023-01-05T10:47:27Z</time>
      </trkpt>
      <trkpt lat="46.34957" lon="6.00641">
        <ele>1527</ele>
        <time>2023-01-05T10:47:41Z</time>
      </trkpt>
      <trkpt lat="46.34941" lon="6.00649">
        <ele>1535</ele>
        <time>2023-01-05T10:47:55Z</time>
      </trkpt>
      <trkpt lat="46.34923" lon="6.00656">
        <ele>1545</ele>
        <time>2023-01-05T10:48:09Z</time>
      </trkpt>
      <trkpt lat="46.34904" lon="6.00658">
        <ele>1552</ele>
        <time>2023-01-05T10:48:25Z</time>
      </trkpt>
      <trkpt lat="46.34887" lon="6.00651">
        <ele>1556</ele>
        <time>2023-01-05T10:48:39Z</time>
      </trkpt>
      <trkpt lat="46.34867" lon="6.00642">
        <ele>1561</ele>
        <time>2023-01-05T10:48:56Z</time>
      </trkpt>
      <trkpt lat="46.34859" lon="6.00632">
        <ele>1564</ele>
        <time>2023-01-05T10:49:04Z</time>
      </trkpt>
      <trkpt lat="46.34851" lon="6.00633">
        <ele>1566</ele>
        <time>2023-01-05T10:49:11Z</time>
      </trkpt>
      <trkpt lat="46.34847" lon="6.00623">
        <ele>1568</ele>
        <time>2023-01-05T10:49:17Z</time>
      </trkpt>
      <trkpt lat="46.34838" lon="6.00624">
        <ele>1570</ele>
        <time>2023-01-05T10:49:24Z</time>
      </trkpt>
      <trkpt lat="46.34833" lon="6.00617">
        <ele>1572</ele>
        <time>2023-01-05T10:49:30Z</time>
      </trkpt>
      <trkpt lat="46.34826" lon="6.0062">
        <ele>1571</ele>
        <time>2023-01-05T10:49:36Z</time>
      </trkpt>
      <trkpt lat="46.34821" lon="6.00619">
        <ele>1571</ele>
        <time>2023-01-05T10:49:40Z</time>
      </trkpt>
      <trkpt lat="46.34815" lon="6.0062">
        <ele>1571</ele>
        <time>2023-01-05T10:49:44Z</time>
      </trkpt>
      <trkpt lat="46.3481" lon="6.00624">
        <ele>1570</ele>
        <time>2023-01-05T10:49:49Z</time>
      </trkpt>
      <trkpt lat="46.34805" lon="6.00626">
        <ele>1569</ele>
        <time>2023-01-05T10:49:53Z</time>
      </trkpt>
      <trkpt lat="46.348" lon="6.00632">
        <ele>1567</ele>
        <time>2023-01-05T10:49:58Z</time>
      </trkpt>
      <trkpt lat="46.34797" lon="6.0062">
        <ele>1569</ele>
        <time>2023-01-05T10:50:05Z</time>
      </trkpt>
      <trkpt lat="46.34774" lon="6.00596">
        <ele>1574</ele>
        <time>2023-01-05T10:50:28Z</time>
      </trkpt>
      <trkpt lat="46.34759" lon="6.00595">
        <ele>1575</ele>
        <time>2023-01-05T10:50:40Z</time>
      </trkpt>
      <trkpt lat="46.3475" lon="6.00597">
        <ele>1574</ele>
        <time>2023-01-05T10:50:47Z</time>
      </trkpt>
      <trkpt lat="46.34742" lon="6.00594">
        <ele>1574</ele>
        <time>2023-01-05T10:50:54Z</time>
      </trkpt>
      <trkpt lat="46.34734" lon="6.00587">
        <ele>1576</ele>
        <time>2023-01-05T10:51:02Z</time>
      </trkpt>
      <trkpt lat="46.34728" lon="6.00587">
        <ele>1575</ele>
        <time>2023-01-05T10:51:06Z</time>
      </trkpt>
      <trkpt lat="46.34717" lon="6.00572">
        <ele>1576</ele>
        <time>2023-01-05T10:51:18Z</time>
      </trkpt>
      <trkpt lat="46.34707" lon="6.0058">
        <ele>1575</ele>
        <time>2023-01-05T10:51:28Z</time>
      </trkpt>
      <trkpt lat="46.34698" lon="6.00576">
        <ele>1575</ele>
        <time>2023-01-05T10:51:35Z</time>
      </trkpt>
      <trkpt lat="46.34688" lon="6.00567">
        <ele>1575</ele>
        <time>2023-01-05T10:51:45Z</time>
      </trkpt>
      <trkpt lat="46.34678" lon="6.00563">
        <ele>1575</ele>
        <time>2023-01-05T10:51:53Z</time>
      </trkpt>
      <trkpt lat="46.34673" lon="6.00565">
        <ele>1574</ele>
        <time>2023-01-05T10:51:57Z</time>
      </trkpt>
      <trkpt lat="46.34667" lon="6.00561">
        <ele>1574</ele>
        <time>2023-01-05T10:52:02Z</time>
      </trkpt>
      <trkpt lat="46.34657" lon="6.00551">
        <ele>1574</ele>
        <time>2023-01-05T10:52:12Z</time>
      </trkpt>
      <trkpt lat="46.34638" lon="6.00535">
        <ele>1575</ele>
        <time>2023-01-05T10:52:30Z</time>
      </trkpt>
      <trkpt lat="46.3463" lon="6.00518">
        <ele>1578</ele>
        <time>2023-01-05T10:52:41Z</time>
      </trkpt>
      <trkpt lat="46.34615" lon="6.00506">
        <ele>1581</ele>
        <time>2023-01-05T10:52:55Z</time>
      </trkpt>
      <trkpt lat="46.34592" lon="6.00496">
        <ele>1583</ele>
        <time>2023-01-05T10:53:14Z</time>
      </trkpt>
      <trkpt lat="46.34569" lon="6.00493">
        <ele>1584</ele>
        <time>2023-01-05T10:53:32Z</time>
      </trkpt>
      <trkpt lat="46.34546" lon="6.00493">
        <ele>1586</ele>
        <time>2023-01-05T10:53:51Z</time>
      </trkpt>
      <trkpt lat="46.34534" lon="6.00487">
        <ele>1588</ele>
        <time>2023-01-05T10:54:01Z</time>
      </trkpt>
      <trkpt lat="46.34522" lon="6.00492">
        <ele>1589</ele>
        <time>2023-01-05T10:54:11Z</time>
      </trkpt>
      <trkpt lat="46.34503" lon="6.005">
        <ele>1591</ele>
        <time>2023-01-05T10:54:27Z</time>
      </trkpt>
      <trkpt lat="46.34474" lon="6.00489">
        <ele>1593</ele>
        <time>2023-01-05T10:54:51Z</time>
      </trkpt>
      <trkpt lat="46.34458" lon="6.00493">
        <ele>1594</ele>
        <time>2023-01-05T10:55:04Z</time>
      </trkpt>
      <trkpt lat="46.34435" lon="6.00481">
        <ele>1596</ele>
        <time>2023-01-05T10:55:23Z</time>
      </trkpt>
      <trkpt lat="46.3441" lon="6.00467">
        <ele>1595</ele>
        <time>2023-01-05T10:55:45Z</time>
      </trkpt>
      <trkpt lat="46.34387" lon="6.00451">
        <ele>1590</ele>
        <time>2023-01-05T10:56:05Z</time>
      </trkpt>
      <trkpt lat="46.34362" lon="6.0045">
        <ele>1585</ele>
        <time>2023-01-05T10:56:25Z</time>
      </trkpt>
      <trkpt lat="46.34353" lon="6.0044">
        <ele>1584</ele>
        <time>2023-01-05T10:56:34Z</time>
      </trkpt>
      <trkpt lat="46.34324" lon="6.00438">
        <ele>1578</ele>
        <time>2023-01-05T10:56:58Z</time>
      </trkpt>
      <trkpt lat="46.34307" lon="6.00436">
        <ele>1574</ele>
        <time>2023-01-05T10:57:11Z</time>
      </trkpt>
      <trkpt lat="46.34288" lon="6.00431">
        <ele>1571</ele>
        <time>2023-01-05T10:57:27Z</time>
      </trkpt>
      <trkpt lat="46.34269" lon="6.00425">
        <ele>1568</ele>
        <time>2023-01-05T10:57:42Z</time>
      </trkpt>
      <trkpt lat="46.34247" lon="6.00416">
        <ele>1566</ele>
        <time>2023-01-05T10:58:01Z</time>
      </trkpt>
      <trkpt lat="46.34229" lon="6.00408">
        <ele>1562</ele>
        <time>2023-01-05T10:58:16Z</time>
      </trkpt>
      <trkpt lat="46.34183" lon="6.00373">
        <ele>1554</ele>
        <time>2023-01-05T10:58:57Z</time>
      </trkpt>
      <trkpt lat="46.34174" lon="6.00356">
        <ele>1554</ele>
        <time>2023-01-05T10:59:09Z</time>
      </trkpt>
      <trkpt lat="46.3416" lon="6.00348">
        <ele>1555</ele>
        <time>2023-01-05T10:59:21Z</time>
      </trkpt>
      <trkpt lat="46.34132" lon="6.00295">
        <ele>1560</ele>
        <time>2023-01-05T10:59:58Z</time>
      </trkpt>
      <trkpt lat="46.34113" lon="6.00291">
        <ele>1563</ele>
        <time>2023-01-05T11:00:13Z</time>
      </trkpt>
      <trkpt lat="46.34102" lon="6.0026">
        <ele>1566</ele>
        <time>2023-01-05T11:00:33Z</time>
      </trkpt>
      <trkpt lat="46.34085" lon="6.00229">
        <ele>1568</ele>
        <time>2023-01-05T11:00:55Z</time>
      </trkpt>
      <trkpt lat="46.34058" lon="6.00197">
        <ele>1568</ele>
        <time>2023-01-05T11:01:23Z</time>
      </trkpt>
      <trkpt lat="46.34034" lon="6.00164">
        <ele>1568</ele>
        <time>2023-01-05T11:01:49Z</time>
      </trkpt>
      <trkpt lat="46.34005" lon="6.00143">
        <ele>1570</ele>
        <time>2023-01-05T11:02:15Z</time>
      </trkpt>
      <trkpt lat="46.34014" lon="6.00178">
        <ele>1574</ele>
        <time>2023-01-05T11:02:36Z</time>
      </trkpt>
      <trkpt lat="46.34038" lon="6.00216">
        <ele>1574</ele>
        <time>2023-01-05T11:03:04Z</time>
      </trkpt>
      <trkpt lat="46.34073" lon="6.00256">
        <ele>1572</ele>
        <time>2023-01-05T11:03:40Z</time>
      </trkpt>
      <trkpt lat="46.34091" lon="6.00286">
        <ele>1567</ele>
        <time>2023-01-05T11:04:02Z</time>
      </trkpt>
      <trkpt lat="46.34099" lon="6.00286">
        <ele>1566</ele>
        <time>2023-01-05T11:04:08Z</time>
      </trkpt>
      <trkpt lat="46.34106" lon="6.00297">
        <ele>1564</ele>
        <time>2023-01-05T11:04:16Z</time>
      </trkpt>
      <trkpt lat="46.34113" lon="6.00292">
        <ele>1563</ele>
        <time>2023-01-05T11:04:23Z</time>
      </trkpt>
      <trkpt lat="46.34132" lon="6.00295">
        <ele>1560</ele>
        <time>2023-01-05T11:04:38Z</time>
      </trkpt>
      <trkpt lat="46.34161" lon="6.00349">
        <ele>1555</ele>
        <time>2023-01-05T11:05:16Z</time>
      </trkpt>
      <trkpt lat="46.34174" lon="6.00357">
        <ele>1554</ele>
        <time>2023-01-05T11:05:27Z</time>
      </trkpt>
      <trkpt lat="46.34183" lon="6.00374">
        <ele>1554</ele>
        <time>2023-01-05T11:05:39Z</time>
      </trkpt>
      <trkpt lat="46.34229" lon="6.00408">
        <ele>1562</ele>
        <time>2023-01-05T11:06:20Z</time>
      </trkpt>
      <trkpt lat="46.34247" lon="6.00417">
        <ele>1566</ele>
        <time>2023-01-05T11:06:36Z</time>
      </trkpt>
      <trkpt lat="46.34269" lon="6.00426">
        <ele>1568</ele>
        <time>2023-01-05T11:06:54Z</time>
      </trkpt>
      <trkpt lat="46.34288" lon="6.00431">
        <ele>1571</ele>
        <time>2023-01-05T11:07:09Z</time>
      </trkpt>
      <trkpt lat="46.34307" lon="6.00436">
        <ele>1574</ele>
        <time>2023-01-05T11:07:25Z</time>
      </trkpt>
      <trkpt lat="46.34324" lon="6.00439">
        <ele>1578</ele>
        <time>2023-01-05T11:07:39Z</time>
      </trkpt>
      <trkpt lat="46.34353" lon="6.00441">
        <ele>1584</ele>
        <time>2023-01-05T11:08:02Z</time>
      </trkpt>
      <trkpt lat="46.34363" lon="6.0045">
        <ele>1585</ele>
        <time>2023-01-05T11:08:11Z</time>
      </trkpt>
      <trkpt lat="46.34387" lon="6.00451">
        <ele>1590</ele>
        <time>2023-01-05T11:08:30Z</time>
      </trkpt>
      <trkpt lat="46.34411" lon="6.00467">
        <ele>1596</ele>
        <time>2023-01-05T11:08:52Z</time>
      </trkpt>
      <trkpt lat="46.34435" lon="6.00481">
        <ele>1596</ele>
        <time>2023-01-05T11:09:12Z</time>
      </trkpt>
      <trkpt lat="46.34459" lon="6.00492">
        <ele>1594</ele>
        <time>2023-01-05T11:09:32Z</time>
      </trkpt>
      <trkpt lat="46.34474" lon="6.00489">
        <ele>1593</ele>
        <time>2023-01-05T11:09:45Z</time>
      </trkpt>
      <trkpt lat="46.34504" lon="6.005">
        <ele>1591</ele>
        <time>2023-01-05T11:10:09Z</time>
      </trkpt>
      <trkpt lat="46.34523" lon="6.00492">
        <ele>1589</ele>
        <time>2023-01-05T11:10:25Z</time>
      </trkpt>
      <trkpt lat="46.34535" lon="6.00487">
        <ele>1587</ele>
        <time>2023-01-05T11:10:35Z</time>
      </trkpt>
      <trkpt lat="46.34546" lon="6.00493">
        <ele>1586</ele>
        <time>2023-01-05T11:10:45Z</time>
      </trkpt>
      <trkpt lat="46.34569" lon="6.00493">
        <ele>1584</ele>
        <time>2023-01-05T11:11:03Z</time>
      </trkpt>
      <trkpt lat="46.34592" lon="6.00496">
        <ele>1583</ele>
        <time>2023-01-05T11:11:21Z</time>
      </trkpt>
      <trkpt lat="46.34615" lon="6.00506">
        <ele>1581</ele>
        <time>2023-01-05T11:11:41Z</time>
      </trkpt>
      <trkpt lat="46.3463" lon="6.00519">
        <ele>1578</ele>
        <time>2023-01-05T11:11:55Z</time>
      </trkpt>
      <trkpt lat="46.34638" lon="6.00535">
        <ele>1575</ele>
        <time>2023-01-05T11:12:06Z</time>
      </trkpt>
      <trkpt lat="46.34658" lon="6.00551">
        <ele>1574</ele>
        <time>2023-01-05T11:12:24Z</time>
      </trkpt>
      <trkpt lat="46.34667" lon="6.00561">
        <ele>1574</ele>
        <time>2023-01-05T11:12:33Z</time>
      </trkpt>
      <trkpt lat="46.34673" lon="6.00565">
        <ele>1574</ele>
        <time>2023-01-05T11:12:38Z</time>
      </trkpt>
      <trkpt lat="46.34678" lon="6.00562">
        <ele>1575</ele>
        <time>2023-01-05T11:12:43Z</time>
      </trkpt>
      <trkpt lat="46.34688" lon="6.00567">
        <ele>1575</ele>
        <time>2023-01-05T11:12:51Z</time>
      </trkpt>
      <trkpt lat="46.34698" lon="6.00576">
        <ele>1575</ele>
        <time>2023-01-05T11:13:01Z</time>
      </trkpt>
      <trkpt lat="46.34707" lon="6.0058">
        <ele>1575</ele>
        <time>2023-01-05T11:13:08Z</time>
      </trkpt>
      <trkpt lat="46.34717" lon="6.00572">
        <ele>1576</ele>
        <time>2023-01-05T11:13:17Z</time>
      </trkpt>
      <trkpt lat="46.34728" lon="6.00587">
        <ele>1575</ele>
        <time>2023-01-05T11:13:29Z</time>
      </trkpt>
      <trkpt lat="46.34734" lon="6.00587">
        <ele>1576</ele>
        <time>2023-01-05T11:13:34Z</time>
      </trkpt>
      <trkpt lat="46.34742" lon="6.00595">
        <ele>1574</ele>
        <time>2023-01-05T11:13:42Z</time>
      </trkpt>
      <trkpt lat="46.3475" lon="6.00597">
        <ele>1574</ele>
        <time>2023-01-05T11:13:48Z</time>
      </trkpt>
      <trkpt lat="46.34759" lon="6.00595">
        <ele>1575</ele>
        <time>2023-01-05T11:13:56Z</time>
      </trkpt>
      <trkpt lat="46.34774" lon="6.00596">
        <ele>1574</ele>
        <time>2023-01-05T11:14:08Z</time>
      </trkpt>
      <trkpt lat="46.34797" lon="6.00621">
        <ele>1569</ele>
        <time>2023-01-05T11:14:31Z</time>
      </trkpt>
      <trkpt lat="46.348" lon="6.00632">
        <ele>1567</ele>
        <time>2023-01-05T11:14:37Z</time>
      </trkpt>
      <trkpt lat="46.34805" lon="6.00626">
        <ele>1569</ele>
        <time>2023-01-05T11:14:42Z</time>
      </trkpt>
      <trkpt lat="46.3481" lon="6.00624">
        <ele>1570</ele>
        <time>2023-01-05T11:14:47Z</time>
      </trkpt>
      <trkpt lat="46.34815" lon="6.0062">
        <ele>1571</ele>
        <time>2023-01-05T11:14:51Z</time>
      </trkpt>
      <trkpt lat="46.34819" lon="6.00616">
        <ele>1571</ele>
        <time>2023-01-05T11:14:55Z</time>
      </trkpt>
      <trkpt lat="46.34826" lon="6.00599">
        <ele>1574</ele>
        <time>2023-01-05T11:15:06Z</time>
      </trkpt>
      <trkpt lat="46.34827" lon="6.0059">
        <ele>1575</ele>
        <time>2023-01-05T11:15:11Z</time>
      </trkpt>
      <trkpt lat="46.34831" lon="6.00581">
        <ele>1575</ele>
        <time>2023-01-05T11:15:17Z</time>
      </trkpt>
      <trkpt lat="46.34831" lon="6.00574">
        <ele>1574</ele>
        <time>2023-01-05T11:15:21Z</time>
      </trkpt>
      <trkpt lat="46.34832" lon="6.0057">
        <ele>1573</ele>
        <time>2023-01-05T11:15:23Z</time>
      </trkpt>
      <trkpt lat="46.34834" lon="6.00565">
        <ele>1572</ele>
        <time>2023-01-05T11:15:26Z</time>
      </trkpt>
      <trkpt lat="46.34834" lon="6.0055">
        <ele>1570</ele>
        <time>2023-01-05T11:15:35Z</time>
      </trkpt>
      <trkpt lat="46.34842" lon="6.00549">
        <ele>1567</ele>
        <time>2023-01-05T11:15:41Z</time>
      </trkpt>
      <trkpt lat="46.34848" lon="6.00546">
        <ele>1565</ele>
        <time>2023-01-05T11:15:46Z</time>
      </trkpt>
      <trkpt lat="46.34852" lon="6.00534">
        <ele>1562</ele>
        <time>2023-01-05T11:15:54Z</time>
      </trkpt>
      <trkpt lat="46.34856" lon="6.00529">
        <ele>1560</ele>
        <time>2023-01-05T11:15:58Z</time>
      </trkpt>
      <trkpt lat="46.34857" lon="6.00521">
        <ele>1559</ele>
        <time>2023-01-05T11:16:02Z</time>
      </trkpt>
      <trkpt lat="46.34858" lon="6.00514">
        <ele>1558</ele>
        <time>2023-01-05T11:16:06Z</time>
      </trkpt>
      <trkpt lat="46.34856" lon="6.00509">
        <ele>1558</ele>
        <time>2023-01-05T11:16:09Z</time>
      </trkpt>
      <trkpt lat="46.34856" lon="6.00503">
        <ele>1557</ele>
        <time>2023-01-05T11:16:13Z</time>
      </trkpt>
      <trkpt lat="46.34858" lon="6.00498">
        <ele>1556</ele>
        <time>2023-01-05T11:16:16Z</time>
      </trkpt>
      <trkpt lat="46.34857" lon="6.00488">
        <ele>1555</ele>
        <time>2023-01-05T11:16:22Z</time>
      </trkpt>
      <trkpt lat="46.34852" lon="6.00465">
        <ele>1553</ele>
        <time>2023-01-05T11:16:35Z</time>
      </trkpt>
      <trkpt lat="46.34853" lon="6.00452">
        <ele>1551</ele>
        <time>2023-01-05T11:16:42Z</time>
      </trkpt>
      <trkpt lat="46.34856" lon="6.00445">
        <ele>1550</ele>
        <time>2023-01-05T11:16:47Z</time>
      </trkpt>
      <trkpt lat="46.34862" lon="6.00436">
        <ele>1547</ele>
        <time>2023-01-05T11:16:54Z</time>
      </trkpt>
      <trkpt lat="46.34871" lon="6.00429">
        <ele>1545</ele>
        <time>2023-01-05T11:17:02Z</time>
      </trkpt>
      <trkpt lat="46.34877" lon="6.00416">
        <ele>1542</ele>
        <time>2023-01-05T11:17:10Z</time>
      </trkpt>
      <trkpt lat="46.34885" lon="6.004">
        <ele>1539</ele>
        <time>2023-01-05T11:17:21Z</time>
      </trkpt>
      <trkpt lat="46.34887" lon="6.00392">
        <ele>1538</ele>
        <time>2023-01-05T11:17:26Z</time>
      </trkpt>
      <trkpt lat="46.34894" lon="6.00384">
        <ele>1537</ele>
        <time>2023-01-05T11:17:33Z</time>
      </trkpt>
      <trkpt lat="46.34915" lon="6.00385">
        <ele>1534</ele>
        <time>2023-01-05T11:17:50Z</time>
      </trkpt>
      <trkpt lat="46.34921" lon="6.00386">
        <ele>1533</ele>
        <time>2023-01-05T11:17:55Z</time>
      </trkpt>
      <trkpt lat="46.34925" lon="6.00391">
        <ele>1532</ele>
        <time>2023-01-05T11:17:59Z</time>
      </trkpt>
      <trkpt lat="46.34931" lon="6.00394">
        <ele>1530</ele>
        <time>2023-01-05T11:18:04Z</time>
      </trkpt>
      <trkpt lat="46.34937" lon="6.00394">
        <ele>1528</ele>
        <time>2023-01-05T11:18:09Z</time>
      </trkpt>
      <trkpt lat="46.34941" lon="6.00396">
        <ele>1527</ele>
        <time>2023-01-05T11:18:12Z</time>
      </trkpt>
      <trkpt lat="46.34943" lon="6.00403">
        <ele>1527</ele>
        <time>2023-01-05T11:18:16Z</time>
      </trkpt>
      <trkpt lat="46.34948" lon="6.004">
        <ele>1525</ele>
        <time>2023-01-05T11:18:21Z</time>
      </trkpt>
      <trkpt lat="46.34955" lon="6.00411">
        <ele>1523</ele>
        <time>2023-01-05T11:18:29Z</time>
      </trkpt>
      <trkpt lat="46.34961" lon="6.00412">
        <ele>1521</ele>
        <time>2023-01-05T11:18:34Z</time>
      </trkpt>
      <trkpt lat="46.34963" lon="6.00417">
        <ele>1521</ele>
        <time>2023-01-05T11:18:37Z</time>
      </trkpt>
      <trkpt lat="46.34968" lon="6.00419">
        <ele>1519</ele>
        <time>2023-01-05T11:18:41Z</time>
      </trkpt>
      <trkpt lat="46.3497" lon="6.00418">
        <ele>1518</ele>
        <time>2023-01-05T11:18:43Z</time>
      </trkpt>
      <trkpt lat="46.34978" lon="6.00419">
        <ele>1516</ele>
        <time>2023-01-05T11:18:49Z</time>
      </trkpt>
      <trkpt lat="46.34987" lon="6.00418">
        <ele>1513</ele>
        <time>2023-01-05T11:18:57Z</time>
      </trkpt>
      <trkpt lat="46.34991" lon="6.00423">
        <ele>1512</ele>
        <time>2023-01-05T11:19:01Z</time>
      </trkpt>
      <trkpt lat="46.34996" lon="6.00425">
        <ele>1511</ele>
        <time>2023-01-05T11:19:05Z</time>
      </trkpt>
      <trkpt lat="46.35005" lon="6.00434">
        <ele>1509</ele>
        <time>2023-01-05T11:19:14Z</time>
      </trkpt>
      <trkpt lat="46.35008" lon="6.00445">
        <ele>1509</ele>
        <time>2023-01-05T11:19:20Z</time>
      </trkpt>
      <trkpt lat="46.35012" lon="6.00448">
        <ele>1508</ele>
        <time>2023-01-05T11:19:24Z</time>
      </trkpt>
      <trkpt lat="46.35015" lon="6.00454">
        <ele>1507</ele>
        <time>2023-01-05T11:19:28Z</time>
      </trkpt>
      <trkpt lat="46.3502" lon="6.00455">
        <ele>1506</ele>
        <time>2023-01-05T11:19:32Z</time>
      </trkpt>
      <trkpt lat="46.35023" lon="6.00459">
        <ele>1505</ele>
        <time>2023-01-05T11:19:35Z</time>
      </trkpt>
      <trkpt lat="46.35028" lon="6.00456">
        <ele>1504</ele>
        <time>2023-01-05T11:19:40Z</time>
      </trkpt>
      <trkpt lat="46.35036" lon="6.00463">
        <ele>1502</ele>
        <time>2023-01-05T11:19:47Z</time>
      </trkpt>
      <trkpt lat="46.35039" lon="6.00471">
        <ele>1502</ele>
        <time>2023-01-05T11:19:52Z</time>
      </trkpt>
      <trkpt lat="46.35042" lon="6.00471">
        <ele>1501</ele>
        <time>2023-01-05T11:19:55Z</time>
      </trkpt>
      <trkpt lat="46.3505" lon="6.00467">
        <ele>1499</ele>
        <time>2023-01-05T11:20:01Z</time>
      </trkpt>
      <trkpt lat="46.35056" lon="6.00467">
        <ele>1498</ele>
        <time>2023-01-05T11:20:06Z</time>
      </trkpt>
      <trkpt lat="46.35062" lon="6.00467">
        <ele>1496</ele>
        <time>2023-01-05T11:20:11Z</time>
      </trkpt>
      <trkpt lat="46.35074" lon="6.00469">
        <ele>1493</ele>
        <time>2023-01-05T11:20:21Z</time>
      </trkpt>
      <trkpt lat="46.35081" lon="6.00469">
        <ele>1491</ele>
        <time>2023-01-05T11:20:26Z</time>
      </trkpt>
      <trkpt lat="46.35086" lon="6.00474">
        <ele>1490</ele>
        <time>2023-01-05T11:20:31Z</time>
      </trkpt>
      <trkpt lat="46.35092" lon="6.00478">
        <ele>1489</ele>
        <time>2023-01-05T11:20:36Z</time>
      </trkpt>
      <trkpt lat="46.35102" lon="6.00491">
        <ele>1488</ele>
        <time>2023-01-05T11:20:47Z</time>
      </trkpt>
      <trkpt lat="46.3511" lon="6.00491">
        <ele>1487</ele>
        <time>2023-01-05T11:20:54Z</time>
      </trkpt>
      <trkpt lat="46.35121" lon="6.00503">
        <ele>1485</ele>
        <time>2023-01-05T11:21:05Z</time>
      </trkpt>
      <trkpt lat="46.35128" lon="6.00503">
        <ele>1484</ele>
        <time>2023-01-05T11:21:10Z</time>
      </trkpt>
      <trkpt lat="46.35133" lon="6.00501">
        <ele>1483</ele>
        <time>2023-01-05T11:21:14Z</time>
      </trkpt>
      <trkpt lat="46.35138" lon="6.00501">
        <ele>1483</ele>
        <time>2023-01-05T11:21:18Z</time>
      </trkpt>
      <trkpt lat="46.35141" lon="6.00498">
        <ele>1482</ele>
        <time>2023-01-05T11:21:21Z</time>
      </trkpt>
      <trkpt lat="46.35157" lon="6.00495">
        <ele>1480</ele>
        <time>2023-01-05T11:21:34Z</time>
      </trkpt>
      <trkpt lat="46.35167" lon="6.00489">
        <ele>1479</ele>
        <time>2023-01-05T11:21:43Z</time>
      </trkpt>
      <trkpt lat="46.35176" lon="6.00494">
        <ele>1478</ele>
        <time>2023-01-05T11:21:51Z</time>
      </trkpt>
      <trkpt lat="46.35184" lon="6.00498">
        <ele>1477</ele>
        <time>2023-01-05T11:21:57Z</time>
      </trkpt>
      <trkpt lat="46.35196" lon="6.005">
        <ele>1476</ele>
        <time>2023-01-05T11:22:07Z</time>
      </trkpt>
      <trkpt lat="46.352" lon="6.00497">
        <ele>1476</ele>
        <time>2023-01-05T11:22:11Z</time>
      </trkpt>
      <trkpt lat="46.35206" lon="6.00492">
        <ele>1475</ele>
        <time>2023-01-05T11:22:16Z</time>
      </trkpt>
      <trkpt lat="46.3521" lon="6.00486">
        <ele>1475</ele>
        <time>2023-01-05T11:22:21Z</time>
      </trkpt>
      <trkpt lat="46.35215" lon="6.00484">
        <ele>1474</ele>
        <time>2023-01-05T11:22:25Z</time>
      </trkpt>
      <trkpt lat="46.35231" lon="6.00472">
        <ele>1472</ele>
        <time>2023-01-05T11:22:39Z</time>
      </trkpt>
      <trkpt lat="46.35239" lon="6.00464">
        <ele>1471</ele>
        <time>2023-01-05T11:22:47Z</time>
      </trkpt>
      <trkpt lat="46.35241" lon="6.00459">
        <ele>1471</ele>
        <time>2023-01-05T11:22:50Z</time>
      </trkpt>
      <trkpt lat="46.35248" lon="6.0046">
        <ele>1470</ele>
        <time>2023-01-05T11:22:56Z</time>
      </trkpt>
      <trkpt lat="46.35274" lon="6.00461">
        <ele>1468</ele>
        <time>2023-01-05T11:23:17Z</time>
      </trkpt>
      <trkpt lat="46.35288" lon="6.00453">
        <ele>1467</ele>
        <time>2023-01-05T11:23:29Z</time>
      </trkpt>
      <trkpt lat="46.35296" lon="6.00443">
        <ele>1465</ele>
        <time>2023-01-05T11:23:37Z</time>
      </trkpt>
      <trkpt lat="46.35304" lon="6.00439">
        <ele>1464</ele>
        <time>2023-01-05T11:23:44Z</time>
      </trkpt>
      <trkpt lat="46.3531" lon="6.0044">
        <ele>1464</ele>
        <time>2023-01-05T11:23:49Z</time>
      </trkpt>
      <trkpt lat="46.35315" lon="6.00445">
        <ele>1463</ele>
        <time>2023-01-05T11:23:54Z</time>
      </trkpt>
      <trkpt lat="46.3532" lon="6.00458">
        <ele>1464</ele>
        <time>2023-01-05T11:24:02Z</time>
      </trkpt>
      <trkpt lat="46.35326" lon="6.00487">
        <ele>1466</ele>
        <time>2023-01-05T11:24:19Z</time>
      </trkpt>
      <trkpt lat="46.3533" lon="6.00497">
        <ele>1467</ele>
        <time>2023-01-05T11:24:25Z</time>
      </trkpt>
      <trkpt lat="46.35336" lon="6.00502">
        <ele>1467</ele>
        <time>2023-01-05T11:24:31Z</time>
      </trkpt>
      <trkpt lat="46.3534" lon="6.00503">
        <ele>1468</ele>
        <time>2023-01-05T11:24:34Z</time>
      </trkpt>
      <trkpt lat="46.35348" lon="6.00502">
        <ele>1467</ele>
        <time>2023-01-05T11:24:40Z</time>
      </trkpt>
      <trkpt lat="46.35362" lon="6.00497">
        <ele>1467</ele>
        <time>2023-01-05T11:24:52Z</time>
      </trkpt>
      <trkpt lat="46.35396" lon="6.00475">
        <ele>1465</ele>
        <time>2023-01-05T11:25:22Z</time>
      </trkpt>
      <trkpt lat="46.35405" lon="6.00472">
        <ele>1465</ele>
        <time>2023-01-05T11:25:29Z</time>
      </trkpt>
      <trkpt lat="46.35413" lon="6.00476">
        <ele>1465</ele>
        <time>2023-01-05T11:25:36Z</time>
      </trkpt>
      <trkpt lat="46.35422" lon="6.00491">
        <ele>1467</ele>
        <time>2023-01-05T11:25:47Z</time>
      </trkpt>
      <trkpt lat="46.35429" lon="6.00498">
        <ele>1467</ele>
        <time>2023-01-05T11:25:54Z</time>
      </trkpt>
      <trkpt lat="46.35442" lon="6.00499">
        <ele>1467</ele>
        <time>2023-01-05T11:26:04Z</time>
      </trkpt>
      <trkpt lat="46.35456" lon="6.00497">
        <ele>1466</ele>
        <time>2023-01-05T11:26:15Z</time>
      </trkpt>
      <trkpt lat="46.35468" lon="6.005">
        <ele>1466</ele>
        <time>2023-01-05T11:26:25Z</time>
      </trkpt>
      <trkpt lat="46.35484" lon="6.0051">
        <ele>1466</ele>
        <time>2023-01-05T11:26:39Z</time>
      </trkpt>
      <trkpt lat="46.35495" lon="6.00508">
        <ele>1465</ele>
        <time>2023-01-05T11:26:48Z</time>
      </trkpt>
      <trkpt lat="46.35504" lon="6.00506">
        <ele>1464</ele>
        <time>2023-01-05T11:26:55Z</time>
      </trkpt>
      <trkpt lat="46.35511" lon="6.00513">
        <ele>1464</ele>
        <time>2023-01-05T11:27:02Z</time>
      </trkpt>
      <trkpt lat="46.35513" lon="6.0052">
        <ele>1465</ele>
        <time>2023-01-05T11:27:06Z</time>
      </trkpt>
      <trkpt lat="46.35511" lon="6.00527">
        <ele>1465</ele>
        <time>2023-01-05T11:27:10Z</time>
      </trkpt>
      <trkpt lat="46.35508" lon="6.00538">
        <ele>1466</ele>
        <time>2023-01-05T11:27:17Z</time>
      </trkpt>
      <trkpt lat="46.35504" lon="6.00547">
        <ele>1467</ele>
        <time>2023-01-05T11:27:23Z</time>
      </trkpt>
      <trkpt lat="46.35504" lon="6.00558">
        <ele>1468</ele>
        <time>2023-01-05T11:27:29Z</time>
      </trkpt>
      <trkpt lat="46.3551" lon="6.00572">
        <ele>1469</ele>
        <time>2023-01-05T11:27:38Z</time>
      </trkpt>
      <trkpt lat="46.35521" lon="6.0058">
        <ele>1470</ele>
        <time>2023-01-05T11:27:48Z</time>
      </trkpt>
      <trkpt lat="46.35535" lon="6.0058">
        <ele>1470</ele>
        <time>2023-01-05T11:27:59Z</time>
      </trkpt>
      <trkpt lat="46.35547" lon="6.00576">
        <ele>1470</ele>
        <time>2023-01-05T11:28:09Z</time>
      </trkpt>
      <trkpt lat="46.35561" lon="6.00562">
        <ele>1468</ele>
        <time>2023-01-05T11:28:23Z</time>
      </trkpt>
      <trkpt lat="46.35583" lon="6.00536">
        <ele>1463</ele>
        <time>2023-01-05T11:28:45Z</time>
      </trkpt>
      <trkpt lat="46.35591" lon="6.00533">
        <ele>1462</ele>
        <time>2023-01-05T11:28:52Z</time>
      </trkpt>
      <trkpt lat="46.356" lon="6.00536">
        <ele>1461</ele>
        <time>2023-01-05T11:28:59Z</time>
      </trkpt>
      <trkpt lat="46.35616" lon="6.00543">
        <ele>1460</ele>
        <time>2023-01-05T11:29:13Z</time>
      </trkpt>
      <trkpt lat="46.35627" lon="6.00553">
        <ele>1461</ele>
        <time>2023-01-05T11:29:23Z</time>
      </trkpt>
      <trkpt lat="46.35635" lon="6.00566">
        <ele>1461</ele>
        <time>2023-01-05T11:29:33Z</time>
      </trkpt>
      <trkpt lat="46.35647" lon="6.00581">
        <ele>1462</ele>
        <time>2023-01-05T11:29:45Z</time>
      </trkpt>
      <trkpt lat="46.35654" lon="6.00587">
        <ele>1461</ele>
        <time>2023-01-05T11:29:52Z</time>
      </trkpt>
      <trkpt lat="46.35661" lon="6.00599">
        <ele>1462</ele>
        <time>2023-01-05T11:30:01Z</time>
      </trkpt>
      <trkpt lat="46.35669" lon="6.00619">
        <ele>1464</ele>
        <time>2023-01-05T11:30:13Z</time>
      </trkpt>
      <trkpt lat="46.35674" lon="6.00634">
        <ele>1464</ele>
        <time>2023-01-05T11:30:23Z</time>
      </trkpt>
      <trkpt lat="46.35678" lon="6.00657">
        <ele>1467</ele>
        <time>2023-01-05T11:30:36Z</time>
      </trkpt>
      <trkpt lat="46.35685" lon="6.00677">
        <ele>1467</ele>
        <time>2023-01-05T11:30:48Z</time>
      </trkpt>
      <trkpt lat="46.35689" lon="6.00698">
        <ele>1467</ele>
        <time>2023-01-05T11:31:00Z</time>
      </trkpt>
      <trkpt lat="46.35692" lon="6.00713">
        <ele>1467</ele>
        <time>2023-01-05T11:31:09Z</time>
      </trkpt>
      <trkpt lat="46.35698" lon="6.00726">
        <ele>1467</ele>
        <time>2023-01-05T11:31:17Z</time>
      </trkpt>
      <trkpt lat="46.35716" lon="6.00749">
        <ele>1465</ele>
        <time>2023-01-05T11:31:37Z</time>
      </trkpt>
      <trkpt lat="46.35735" lon="6.00761">
        <ele>1462</ele>
        <time>2023-01-05T11:31:53Z</time>
      </trkpt>
      <trkpt lat="46.35748" lon="6.00769">
        <ele>1460</ele>
        <time>2023-01-05T11:32:04Z</time>
      </trkpt>
      <trkpt lat="46.35756" lon="6.00781">
        <ele>1462</ele>
        <time>2023-01-05T11:32:14Z</time>
      </trkpt>
      <trkpt lat="46.35765" lon="6.00798">
        <ele>1464</ele>
        <time>2023-01-05T11:32:26Z</time>
      </trkpt>
      <trkpt lat="46.35774" lon="6.00803">
        <ele>1464</ele>
        <time>2023-01-05T11:32:33Z</time>
      </trkpt>
      <trkpt lat="46.35804" lon="6.0081">
        <ele>1463</ele>
        <time>2023-01-05T11:32:58Z</time>
      </trkpt>
      <trkpt lat="46.35813" lon="6.00784">
        <ele>1459</ele>
        <time>2023-01-05T11:33:14Z</time>
      </trkpt>
      <trkpt lat="46.35817" lon="6.00764">
        <ele>1456</ele>
        <time>2023-01-05T11:33:25Z</time>
      </trkpt>
      <trkpt lat="46.35823" lon="6.00757">
        <ele>1455</ele>
        <time>2023-01-05T11:33:31Z</time>
      </trkpt>
      <trkpt lat="46.35829" lon="6.00744">
        <ele>1453</ele>
        <time>2023-01-05T11:33:40Z</time>
      </trkpt>
      <trkpt lat="46.35838" lon="6.00721">
        <ele>1450</ele>
        <time>2023-01-05T11:33:55Z</time>
      </trkpt>
      <trkpt lat="46.35857" lon="6.0071">
        <ele>1447</ele>
        <time>2023-01-05T11:34:11Z</time>
      </trkpt>
      <trkpt lat="46.35879" lon="6.0072">
        <ele>1446</ele>
        <time>2023-01-05T11:34:29Z</time>
      </trkpt>
      <trkpt lat="46.35887" lon="6.00729">
        <ele>1446</ele>
        <time>2023-01-05T11:34:38Z</time>
      </trkpt>
      <trkpt lat="46.35906" lon="6.00735">
        <ele>1445</ele>
        <time>2023-01-05T11:34:53Z</time>
      </trkpt>
      <trkpt lat="46.35922" lon="6.00748">
        <ele>1444</ele>
        <time>2023-01-05T11:35:08Z</time>
      </trkpt>
      <trkpt lat="46.35924" lon="6.00756">
        <ele>1445</ele>
        <time>2023-01-05T11:35:13Z</time>
      </trkpt>
      <trkpt lat="46.35932" lon="6.00759">
        <ele>1444</ele>
        <time>2023-01-05T11:35:19Z</time>
      </trkpt>
      <trkpt lat="46.35946" lon="6.00747">
        <ele>1442</ele>
        <time>2023-01-05T11:35:32Z</time>
      </trkpt>
      <trkpt lat="46.35964" lon="6.00737">
        <ele>1439</ele>
        <time>2023-01-05T11:35:48Z</time>
      </trkpt>
      <trkpt lat="46.35971" lon="6.00737">
        <ele>1438</ele>
        <time>2023-01-05T11:35:53Z</time>
      </trkpt>
      <trkpt lat="46.35984" lon="6.00732">
        <ele>1436</ele>
        <time>2023-01-05T11:36:04Z</time>
      </trkpt>
      <trkpt lat="46.35987" lon="6.00734">
        <ele>1436</ele>
        <time>2023-01-05T11:36:07Z</time>
      </trkpt>
      <trkpt lat="46.35989" lon="6.0072">
        <ele>1435</ele>
        <time>2023-01-05T11:36:15Z</time>
      </trkpt>
      <trkpt lat="46.35997" lon="6.00701">
        <ele>1433</ele>
        <time>2023-01-05T11:36:27Z</time>
      </trkpt>
      <trkpt lat="46.36008" lon="6.00694">
        <ele>1431</ele>
        <time>2023-01-05T11:36:36Z</time>
      </trkpt>
      <trkpt lat="46.36025" lon="6.00679">
        <ele>1427</ele>
        <time>2023-01-05T11:36:52Z</time>
      </trkpt>
      <trkpt lat="46.36041" lon="6.00651">
        <ele>1421</ele>
        <time>2023-01-05T11:37:12Z</time>
      </trkpt>
      <trkpt lat="46.36039" lon="6.00639">
        <ele>1420</ele>
        <time>2023-01-05T11:37:19Z</time>
      </trkpt>
      <trkpt lat="46.36029" lon="6.00631">
        <ele>1421</ele>
        <time>2023-01-05T11:37:28Z</time>
      </trkpt>
      <trkpt lat="46.36027" lon="6.00609">
        <ele>1419</ele>
        <time>2023-01-05T11:37:41Z</time>
      </trkpt>
      <trkpt lat="46.36031" lon="6.0059">
        <ele>1416</ele>
        <time>2023-01-05T11:37:52Z</time>
      </trkpt>
      <trkpt lat="46.36029" lon="6.00558">
        <ele>1414</ele>
        <time>2023-01-05T11:38:09Z</time>
      </trkpt>
      <trkpt lat="46.36042" lon="6.00581">
        <ele>1413</ele>
        <time>2023-01-05T11:38:26Z</time>
      </trkpt>
      <trkpt lat="46.36065" lon="6.00588">
        <ele>1410</ele>
        <time>2023-01-05T11:38:45Z</time>
      </trkpt>
      <trkpt lat="46.36074" lon="6.00583">
        <ele>1408</ele>
        <time>2023-01-05T11:38:52Z</time>
      </trkpt>
      <trkpt lat="46.36082" lon="6.00577">
        <ele>1406</ele>
        <time>2023-01-05T11:39:00Z</time>
      </trkpt>
      <trkpt lat="46.36086" lon="6.00587">
        <ele>1406</ele>
        <time>2023-01-05T11:39:06Z</time>
      </trkpt>
      <trkpt lat="46.36086" lon="6.00596">
        <ele>1407</ele>
        <time>2023-01-05T11:39:11Z</time>
      </trkpt>
      <trkpt lat="46.36092" lon="6.00595">
        <ele>1405</ele>
        <time>2023-01-05T11:39:16Z</time>
      </trkpt>
      <trkpt lat="46.36095" lon="6.00607">
        <ele>1406</ele>
        <time>2023-01-05T11:39:23Z</time>
      </trkpt>
      <trkpt lat="46.36106" lon="6.00611">
        <ele>1404</ele>
        <time>2023-01-05T11:39:32Z</time>
      </trkpt>
      <trkpt lat="46.36114" lon="6.00607">
        <ele>1401</ele>
        <time>2023-01-05T11:39:39Z</time>
      </trkpt>
      <trkpt lat="46.36115" lon="6.00598">
        <ele>1400</ele>
        <time>2023-01-05T11:39:44Z</time>
      </trkpt>
      <trkpt lat="46.3611" lon="6.00587">
        <ele>1400</ele>
        <time>2023-01-05T11:39:51Z</time>
      </trkpt>
      <trkpt lat="46.3611" lon="6.00555">
        <ele>1396</ele>
        <time>2023-01-05T11:40:09Z</time>
      </trkpt>
      <trkpt lat="46.3614" lon="6.00543">
        <ele>1387</ele>
        <time>2023-01-05T11:40:34Z</time>
      </trkpt>
      <trkpt lat="46.36158" lon="6.00542">
        <ele>1382</ele>
        <time>2023-01-05T11:40:48Z</time>
      </trkpt>
      <trkpt lat="46.36168" lon="6.00536">
        <ele>1378</ele>
        <time>2023-01-05T11:40:57Z</time>
      </trkpt>
      <trkpt lat="46.3618" lon="6.00519">
        <ele>1373</ele>
        <time>2023-01-05T11:41:10Z</time>
      </trkpt>
      <trkpt lat="46.36204" lon="6.00498">
        <ele>1364</ele>
        <time>2023-01-05T11:41:33Z</time>
      </trkpt>
      <trkpt lat="46.36216" lon="6.00495">
        <ele>1360</ele>
        <time>2023-01-05T11:41:42Z</time>
      </trkpt>
      <trkpt lat="46.36243" lon="6.00558">
        <ele>1360</ele>
        <time>2023-01-05T11:42:23Z</time>
      </trkpt>
      <trkpt lat="46.36246" lon="6.00577">
        <ele>1361</ele>
        <time>2023-01-05T11:42:34Z</time>
      </trkpt>
      <trkpt lat="46.36242" lon="6.00587">
        <ele>1364</ele>
        <time>2023-01-05T11:42:40Z</time>
      </trkpt>
      <trkpt lat="46.36242" lon="6.00597">
        <ele>1365</ele>
        <time>2023-01-05T11:42:46Z</time>
      </trkpt>
      <trkpt lat="46.36275" lon="6.00666">
        <ele>1360</ele>
        <time>2023-01-05T11:43:32Z</time>
      </trkpt>
      <trkpt lat="46.36304" lon="6.00738">
        <ele>1359</ele>
        <time>2023-01-05T11:44:18Z</time>
      </trkpt>
      <trkpt lat="46.36312" lon="6.00742">
        <ele>1357</ele>
        <time>2023-01-05T11:44:25Z</time>
      </trkpt>
      <trkpt lat="46.36323" lon="6.00767">
        <ele>1356</ele>
        <time>2023-01-05T11:44:42Z</time>
      </trkpt>
      <trkpt lat="46.36349" lon="6.00813">
        <ele>1350</ele>
        <time>2023-01-05T11:45:14Z</time>
      </trkpt>
      <trkpt lat="46.36353" lon="6.00823">
        <ele>1350</ele>
        <time>2023-01-05T11:45:21Z</time>
      </trkpt>
      <trkpt lat="46.36358" lon="6.00826">
        <ele>1348</ele>
        <time>2023-01-05T11:45:25Z</time>
      </trkpt>
      <trkpt lat="46.36363" lon="6.00839">
        <ele>1348</ele>
        <time>2023-01-05T11:45:33Z</time>
      </trkpt>
      <trkpt lat="46.36369" lon="6.00859">
        <ele>1349</ele>
        <time>2023-01-05T11:45:45Z</time>
      </trkpt>
      <trkpt lat="46.36382" lon="6.00893">
        <ele>1349</ele>
        <time>2023-01-05T11:46:07Z</time>
      </trkpt>
      <trkpt lat="46.36396" lon="6.00925">
        <ele>1349</ele>
        <time>2023-01-05T11:46:28Z</time>
      </trkpt>
      <trkpt lat="46.36406" lon="6.00943">
        <ele>1348</ele>
        <time>2023-01-05T11:46:41Z</time>
      </trkpt>
      <trkpt lat="46.36419" lon="6.00945">
        <ele>1344</ele>
        <time>2023-01-05T11:46:51Z</time>
      </trkpt>
      <trkpt lat="46.36434" lon="6.00954">
        <ele>1343</ele>
        <time>2023-01-05T11:47:04Z</time>
      </trkpt>
      <trkpt lat="46.36445" lon="6.00968">
        <ele>1343</ele>
        <time>2023-01-05T11:47:16Z</time>
      </trkpt>
      <trkpt lat="46.36457" lon="6.00981">
        <ele>1343</ele>
        <time>2023-01-05T11:47:28Z</time>
      </trkpt>
      <trkpt lat="46.36473" lon="6.00986">
        <ele>1341</ele>
        <time>2023-01-05T11:47:41Z</time>
      </trkpt>
      <trkpt lat="46.3649" lon="6.00978">
        <ele>1337</ele>
        <time>2023-01-05T11:47:55Z</time>
      </trkpt>
      <trkpt lat="46.36499" lon="6.00967">
        <ele>1333</ele>
        <time>2023-01-05T11:48:05Z</time>
      </trkpt>
      <trkpt lat="46.36507" lon="6.00957">
        <ele>1330</ele>
        <time>2023-01-05T11:48:13Z</time>
      </trkpt>
      <trkpt lat="46.36514" lon="6.00953">
        <ele>1328</ele>
        <time>2023-01-05T11:48:19Z</time>
      </trkpt>
      <trkpt lat="46.36525" lon="6.00954">
        <ele>1326</ele>
        <time>2023-01-05T11:48:28Z</time>
      </trkpt>
      <trkpt lat="46.36537" lon="6.00967">
        <ele>1326</ele>
        <time>2023-01-05T11:48:40Z</time>
      </trkpt>
      <trkpt lat="46.36553" lon="6.00993">
        <ele>1328</ele>
        <time>2023-01-05T11:48:59Z</time>
      </trkpt>
      <trkpt lat="46.36558" lon="6.01012">
        <ele>1330</ele>
        <time>2023-01-05T11:49:10Z</time>
      </trkpt>
      <trkpt lat="46.36559" lon="6.01027">
        <ele>1332</ele>
        <time>2023-01-05T11:49:19Z</time>
      </trkpt>
      <trkpt lat="46.36562" lon="6.01043">
        <ele>1333</ele>
        <time>2023-01-05T11:49:28Z</time>
      </trkpt>
      <trkpt lat="46.3657" lon="6.01051">
        <ele>1332</ele>
        <time>2023-01-05T11:49:36Z</time>
      </trkpt>
      <trkpt lat="46.36585" lon="6.01052">
        <ele>1330</ele>
        <time>2023-01-05T11:49:48Z</time>
      </trkpt>
      <trkpt lat="46.36598" lon="6.01054">
        <ele>1327</ele>
        <time>2023-01-05T11:49:58Z</time>
      </trkpt>
      <trkpt lat="46.36614" lon="6.01066">
        <ele>1324</ele>
        <time>2023-01-05T11:50:13Z</time>
      </trkpt>
      <trkpt lat="46.36637" lon="6.01095">
        <ele>1323</ele>
        <time>2023-01-05T11:50:37Z</time>
      </trkpt>
      <trkpt lat="46.36648" lon="6.01118">
        <ele>1323</ele>
        <time>2023-01-05T11:50:52Z</time>
      </trkpt>
      <trkpt lat="46.36654" lon="6.01135">
        <ele>1325</ele>
        <time>2023-01-05T11:51:03Z</time>
      </trkpt>
      <trkpt lat="46.36656" lon="6.01153">
        <ele>1327</ele>
        <time>2023-01-05T11:51:13Z</time>
      </trkpt>
      <trkpt lat="46.36655" lon="6.01196">
        <ele>1331</ele>
        <time>2023-01-05T11:51:37Z</time>
      </trkpt>
      <trkpt lat="46.36654" lon="6.01237">
        <ele>1332</ele>
        <time>2023-01-05T11:52:00Z</time>
      </trkpt>
      <trkpt lat="46.36657" lon="6.01249">
        <ele>1333</ele>
        <time>2023-01-05T11:52:07Z</time>
      </trkpt>
      <trkpt lat="46.36665" lon="6.0126">
        <ele>1332</ele>
        <time>2023-01-05T11:52:15Z</time>
      </trkpt>
      <trkpt lat="46.36675" lon="6.0127">
        <ele>1330</ele>
        <time>2023-01-05T11:52:25Z</time>
      </trkpt>
      <trkpt lat="46.36684" lon="6.01281">
        <ele>1328</ele>
        <time>2023-01-05T11:52:35Z</time>
      </trkpt>
      <trkpt lat="46.36694" lon="6.01301">
        <ele>1326</ele>
        <time>2023-01-05T11:52:48Z</time>
      </trkpt>
      <trkpt lat="46.36697" lon="6.01312">
        <ele>1326</ele>
        <time>2023-01-05T11:52:55Z</time>
      </trkpt>
      <trkpt lat="46.36699" lon="6.01326">
        <ele>1326</ele>
        <time>2023-01-05T11:53:03Z</time>
      </trkpt>
      <trkpt lat="46.367" lon="6.01351">
        <ele>1326</ele>
        <time>2023-01-05T11:53:17Z</time>
      </trkpt>
      <trkpt lat="46.36708" lon="6.01381">
        <ele>1323</ele>
        <time>2023-01-05T11:53:34Z</time>
      </trkpt>
      <trkpt lat="46.36709" lon="6.01402">
        <ele>1322</ele>
        <time>2023-01-05T11:53:46Z</time>
      </trkpt>
      <trkpt lat="46.36707" lon="6.01418">
        <ele>1322</ele>
        <time>2023-01-05T11:53:55Z</time>
      </trkpt>
      <trkpt lat="46.36708" lon="6.01437">
        <ele>1321</ele>
        <time>2023-01-05T11:54:05Z</time>
      </trkpt>
      <trkpt lat="46.36715" lon="6.0146">
        <ele>1319</ele>
        <time>2023-01-05T11:54:19Z</time>
      </trkpt>
      <trkpt lat="46.36724" lon="6.01478">
        <ele>1318</ele>
        <time>2023-01-05T11:54:32Z</time>
      </trkpt>
      <trkpt lat="46.36733" lon="6.01498">
        <ele>1317</ele>
        <time>2023-01-05T11:54:45Z</time>
      </trkpt>
      <trkpt lat="46.3674" lon="6.01515">
        <ele>1317</ele>
        <time>2023-01-05T11:54:56Z</time>
      </trkpt>
      <trkpt lat="46.36749" lon="6.01538">
        <ele>1317</ele>
        <time>2023-01-05T11:55:10Z</time>
      </trkpt>
      <trkpt lat="46.36757" lon="6.0155">
        <ele>1316</ele>
        <time>2023-01-05T11:55:20Z</time>
      </trkpt>
      <trkpt lat="46.36744" lon="6.01586">
        <ele>1319</ele>
        <time>2023-01-05T11:55:42Z</time>
      </trkpt>
      <trkpt lat="46.36733" lon="6.01619">
        <ele>1322</ele>
        <time>2023-01-05T11:56:02Z</time>
      </trkpt>
      <trkpt lat="46.36724" lon="6.0165">
        <ele>1325</ele>
        <time>2023-01-05T11:56:21Z</time>
      </trkpt>
      <trkpt lat="46.36722" lon="6.01666">
        <ele>1326</ele>
        <time>2023-01-05T11:56:30Z</time>
      </trkpt>
      <trkpt lat="46.36722" lon="6.01684">
        <ele>1327</ele>
        <time>2023-01-05T11:56:40Z</time>
      </trkpt>
      <trkpt lat="46.3672" lon="6.01698">
        <ele>1327</ele>
        <time>2023-01-05T11:56:48Z</time>
      </trkpt>
    </trkseg>
  </trk>
</gpx>